createdAt,value
2022-11-29T00:01:31.199Z,16.83
2022-11-29T00:03:57.662Z,17.08
2022-11-29T00:06:26.350Z,15.48
2022-11-29T00:08:54.481Z,15.73
2022-11-29T00:11:24.318Z,17.63
2022-11-29T00:13:50.677Z,19.60
2022-11-29T00:16:17.090Z,15.00
2022-11-29T00:18:43.498Z,15.48
2022-11-29T00:21:09.889Z,14.40
2022-11-29T00:23:36.324Z,14.15
2022-11-29T00:26:07.406Z,13.77
2022-11-29T00:28:35.659Z,14.75
2022-11-29T00:31:16.376Z,14.95
2022-11-29T00:33:42.847Z,14.32
2022-11-29T00:36:09.562Z,16.15
2022-11-29T00:38:35.912Z,15.98
2022-11-29T00:41:02.528Z,14.10
2022-11-29T00:43:28.889Z,17.35
2022-11-29T00:45:55.321Z,15.18
2022-11-29T00:48:21.814Z,14.68
2022-11-29T00:50:48.199Z,13.27
2022-11-29T00:53:14.660Z,14.55
2022-11-29T00:55:41.018Z,13.68
2022-11-29T00:58:07.348Z,13.57
2022-11-29T01:00:33.719Z,14.90
2022-11-29T01:03:00.089Z,14.20
2022-11-29T01:05:26.434Z,17.92
2022-11-29T01:07:52.795Z,15.00
2022-11-29T01:10:19.266Z,16.13
2022-11-29T01:12:45.658Z,14.15
2022-11-29T01:15:12.444Z,16.35
2022-11-29T01:17:39.583Z,14.32
2022-11-29T01:20:10.005Z,15.45
2022-11-29T01:22:37.577Z,16.50
2022-11-29T01:25:05.896Z,15.55
2022-11-29T01:27:32.250Z,15.77
2022-11-29T01:29:58.791Z,13.98
2022-11-29T01:32:25.201Z,12.15
2022-11-29T01:34:51.571Z,14.93
2022-11-29T01:37:17.966Z,16.40
2022-11-29T01:39:44.363Z,16.45
2022-11-29T01:42:11.864Z,16.13
2022-11-29T01:44:38.169Z,14.63
2022-11-29T01:47:05.087Z,14.68
2022-11-29T01:49:41.423Z,13.90
2022-11-29T01:52:19.222Z,16.25
2022-11-29T01:54:49.363Z,16.05
2022-11-29T01:57:16.477Z,14.10
2022-11-29T01:59:47.704Z,13.88
2022-11-29T02:02:18.175Z,15.00
2022-11-29T02:04:46.759Z,16.80
2022-11-29T02:07:13.659Z,14.52
2022-11-29T02:09:40.018Z,14.43
2022-11-29T02:12:17.033Z,13.52
2022-11-29T02:15:13.528Z,13.75
2022-11-29T02:17:58.682Z,14.13
2022-11-29T02:20:46.443Z,14.68
2022-11-29T02:23:31.398Z,15.88
2022-11-29T02:26:09.728Z,14.50
2022-11-29T02:29:01.960Z,15.90
2022-11-29T02:31:35.590Z,14.50
2022-11-29T02:34:06.208Z,13.63
2022-11-29T02:36:47.326Z,16.15
2022-11-29T02:39:33.906Z,13.95
2022-11-29T02:42:12.281Z,13.63
2022-11-29T02:45:31.519Z,14.52
2022-11-29T02:48:10.929Z,13.48
2022-11-29T02:50:55.334Z,14.23
2022-11-29T02:53:33.660Z,15.57
2022-11-29T02:58:47.135Z,12.52
2022-11-29T03:01:26.672Z,16.30
2022-11-29T03:04:14.926Z,15.13
2022-11-29T03:06:59.815Z,14.63
2022-11-29T03:09:39.337Z,14.45
2022-11-29T03:12:24.682Z,13.90
2022-11-29T03:15:17.440Z,14.57
2022-11-29T03:18:09.232Z,14.70
2022-11-29T03:20:45.927Z,16.45
2022-11-29T03:23:36.261Z,14.18
2022-11-29T03:28:48.993Z,17.25
2022-11-29T03:31:29.944Z,16.55
2022-11-29T03:34:20.534Z,14.55
2022-11-29T03:37:01.010Z,18.63
2022-11-29T03:39:41.416Z,14.43
2022-11-29T03:42:13.976Z,16.05
2022-11-29T03:44:50.896Z,17.50
2022-11-29T03:47:22.947Z,16.80
2022-11-29T03:50:11.247Z,17.67
2022-11-29T03:52:52.342Z,17.50
2022-11-29T03:55:21.480Z,17.95
2022-11-29T03:58:17.465Z,15.65
2022-11-29T04:00:49.986Z,18.35
2022-11-29T04:03:31.596Z,19.63
2022-11-29T04:06:30.401Z,17.13
2022-11-29T04:09:21.381Z,17.88
2022-11-29T04:12:27.917Z,15.13
2022-11-29T04:15:15.427Z,15.07
2022-11-29T04:18:12.069Z,19.10
2022-11-29T04:21:05.581Z,17.50
2022-11-29T04:23:55.631Z,16.60
2022-11-29T04:26:45.815Z,18.50
2022-11-29T04:29:33.927Z,17.10
2022-11-29T04:32:27.110Z,15.15
2022-11-29T04:35:14.636Z,13.93
2022-11-29T04:38:26.038Z,13.77
2022-11-29T04:41:17.136Z,15.30
2022-11-29T04:44:11.980Z,13.48
2022-11-29T04:47:04.942Z,12.88
2022-11-29T04:49:49.562Z,12.80
2022-11-29T04:52:31.098Z,12.50
2022-11-29T04:55:00.393Z,13.70
2022-11-29T04:57:49.117Z,12.40
2022-11-29T05:00:18.533Z,15.85
2022-11-29T05:03:01.424Z,16.42
2022-11-29T05:05:55.222Z,16.77
2022-11-29T05:08:45.203Z,13.95
2022-11-29T05:11:43.284Z,11.93
2022-11-29T05:14:40.634Z,16.90
2022-11-29T05:17:44.586Z,14.60
2022-11-29T05:20:44.301Z,13.68
2022-11-29T05:23:32.312Z,15.40
2022-11-29T05:26:22.602Z,11.95
2022-11-29T05:29:21.146Z,11.45
2022-11-29T05:31:56.425Z,12.95
2022-11-29T05:34:37.782Z,14.10
2022-11-29T05:37:25.300Z,13.27
2022-11-29T05:40:24.132Z,15.43
2022-11-29T05:43:08.591Z,11.93
2022-11-29T05:46:03.372Z,14.68
2022-11-29T05:48:57.893Z,13.98
2022-11-29T05:51:46.092Z,10.95
2022-11-29T05:54:27.162Z,12.75
2022-11-29T05:57:07.986Z,11.85
2022-11-29T05:59:38.228Z,12.23
2022-11-29T06:02:26.679Z,12.32
2022-11-29T06:05:12.952Z,11.63
2022-11-29T06:08:07.679Z,11.85
2022-11-29T06:10:39.228Z,12.50
2022-11-29T06:13:33.408Z,11.82
2022-11-29T06:16:35.631Z,10.10
2022-11-29T06:19:39.791Z,11.55
2022-11-29T06:22:43.559Z,13.45
2022-11-29T06:25:13.678Z,10.10
2022-11-29T06:28:15.598Z,10.10
2022-11-29T06:30:57.070Z,12.52
2022-11-29T06:33:36.773Z,9.65
2022-11-29T06:36:18.649Z,9.75
2022-11-29T06:38:45.239Z,10.40
2022-11-29T06:41:30.033Z,10.90
2022-11-29T06:43:56.756Z,10.98
2022-11-29T06:46:44.389Z,11.93
2022-11-29T06:49:24.977Z,9.70
2022-11-29T06:52:20.309Z,10.98
2022-11-29T06:55:02.466Z,10.70
2022-11-29T06:57:47.612Z,10.05
2022-11-29T07:00:27.896Z,9.52
2022-11-29T07:03:29.657Z,8.02
2022-11-29T07:05:57.452Z,7.93
2022-11-29T07:08:24.645Z,8.25
2022-11-29T07:10:53.339Z,8.55
2022-11-29T07:13:21.163Z,9.85
2022-11-29T07:15:57.599Z,8.30
2022-11-29T07:18:52.360Z,8.27
2022-11-29T07:21:36.086Z,7.57
2022-11-29T07:24:25.826Z,6.75
2022-11-29T07:27:05.223Z,7.90
2022-11-29T07:30:15.811Z,7.75
2022-11-29T07:33:00.097Z,9.07
2022-11-29T07:35:37.995Z,8.02
2022-11-29T07:38:04.272Z,8.60
2022-11-29T07:43:38.054Z,7.72
2022-11-29T07:46:04.433Z,8.95
2022-11-29T07:48:30.803Z,8.25
2022-11-29T07:50:57.511Z,7.47
2022-11-29T07:53:24.389Z,10.52
2022-11-29T07:55:50.946Z,8.55
2022-11-29T07:58:18.370Z,9.13
2022-11-29T08:00:45.695Z,7.97
2022-11-29T08:03:12.248Z,10.88
2022-11-29T08:05:39.073Z,8.88
2022-11-29T08:08:06.377Z,8.68
2022-11-29T08:10:32.736Z,8.30
2022-11-29T08:12:59.098Z,8.40
2022-11-29T08:15:25.729Z,7.85
2022-11-29T08:17:52.868Z,7.75
2022-11-29T08:20:19.360Z,7.65
2022-11-29T08:22:45.733Z,7.70
2022-11-29T08:25:12.373Z,8.50
2022-11-29T08:27:39.065Z,7.88
2022-11-29T08:30:06.662Z,6.95
2022-11-29T08:32:34.053Z,6.75
2022-11-29T08:35:00.407Z,7.28
2022-11-29T08:37:26.720Z,7.95
2022-11-29T08:42:19.366Z,8.68
2022-11-29T08:44:45.903Z,7.93
2022-11-29T08:47:12.481Z,7.55
2022-11-29T08:49:38.882Z,10.15
2022-11-29T08:52:05.207Z,8.32
2022-11-29T08:54:31.555Z,8.85
2022-11-29T08:57:37.981Z,8.65
2022-11-29T08:59:44.237Z,7.82
2022-11-29T09:02:10.614Z,8.13
2022-11-29T09:04:37.006Z,6.85
2022-11-29T09:07:03.338Z,7.80
2022-11-29T09:09:29.669Z,7.13
2022-11-29T09:11:56.021Z,8.32
2022-11-29T09:14:22.380Z,9.00
2022-11-29T09:16:48.772Z,7.97
2022-11-29T09:19:15.200Z,8.88
2022-11-29T09:21:41.589Z,8.10
2022-11-29T09:24:07.990Z,7.80
2022-11-29T09:26:36.676Z,7.60
2022-11-29T09:29:05.301Z,7.72
2022-11-29T09:31:32.947Z,7.85
2022-11-29T09:33:59.372Z,7.95
2022-11-29T09:36:28.863Z,8.13
2022-11-29T09:38:56.687Z,8.60
2022-11-29T09:41:43.002Z,7.35
2022-11-29T09:44:30.692Z,7.35
2022-11-29T09:47:31.859Z,7.35
2022-11-29T09:50:09.119Z,7.78
2022-11-29T09:52:47.641Z,7.53
2022-11-29T09:55:45.435Z,7.20
2022-11-29T09:58:17.958Z,7.72
2022-11-29T10:00:49.975Z,7.47
2022-11-29T10:03:29.084Z,7.57
2022-11-29T10:06:02.414Z,8.13
2022-11-29T10:08:34.700Z,7.50
2022-11-29T10:13:43.144Z,7.95
2022-11-29T10:16:20.527Z,7.50
2022-11-29T10:18:52.295Z,7.15
2022-11-29T10:21:23.204Z,7.97
2022-11-29T10:24:01.340Z,8.10
2022-11-29T10:26:33.599Z,7.85
2022-11-29T10:29:01.521Z,7.60
2022-11-29T10:31:34.815Z,7.50
2022-11-29T10:34:12.627Z,7.22
2022-11-29T10:36:45.012Z,8.45
2022-11-29T10:39:41.727Z,7.30
2022-11-29T10:42:20.034Z,8.32
2022-11-29T10:44:46.672Z,7.82
2022-11-29T10:47:13.190Z,7.85
2022-11-29T10:49:39.574Z,8.60
2022-11-29T10:52:16.207Z,8.68
2022-11-29T10:54:44.313Z,8.43
2022-11-29T10:57:16.774Z,8.00
2022-11-29T11:02:24.276Z,7.28
2022-11-29T11:04:50.726Z,7.70
2022-11-29T11:07:27.319Z,7.20
2022-11-29T11:09:56.529Z,8.10
2022-11-29T11:12:28.114Z,7.68
2022-11-29T11:15:26.533Z,7.53
2022-11-29T11:18:04.763Z,7.53
2022-11-29T11:23:20.761Z,8.05
2022-11-29T11:28:25.327Z,6.85
2022-11-29T11:33:21.919Z,7.50
2022-11-29T11:36:23.489Z,7.78
2022-11-29T11:38:55.632Z,8.15
2022-11-29T11:44:45.799Z,8.18
2022-11-29T11:47:15.688Z,9.18
2022-11-29T11:49:53.039Z,7.82
2022-11-29T11:52:27.524Z,7.72
2022-11-29T11:54:57.742Z,7.20
2022-11-29T11:57:26.063Z,8.18
2022-11-29T11:59:55.460Z,7.40
2022-11-29T12:02:26.106Z,6.57
2022-11-29T12:04:57.291Z,6.72
2022-11-29T12:07:59.811Z,7.45
2022-11-29T12:10:24.367Z,7.47
2022-11-29T12:12:52.066Z,6.93
2022-11-29T12:15:29.418Z,7.32
2022-11-29T12:18:04.606Z,7.13
2022-11-29T12:20:50.073Z,6.78
2022-11-29T12:23:26.996Z,7.10
2022-11-29T12:26:55.252Z,7.50
2022-11-29T12:29:13.887Z,7.72
2022-11-29T12:31:40.182Z,7.28
2022-11-29T12:34:33.136Z,7.05
2022-11-29T12:37:14.260Z,7.70
2022-11-29T12:39:56.111Z,7.00
2022-11-29T12:42:35.471Z,8.40
2022-11-29T12:45:10.872Z,7.20
2022-11-29T12:48:00.957Z,7.13
2022-11-29T12:50:44.750Z,7.95
2022-11-29T12:53:39.017Z,7.80
2022-11-29T12:56:11.478Z,7.15
2022-11-29T12:59:10.742Z,6.93
2022-11-29T13:02:02.256Z,6.90
2022-11-29T13:04:43.789Z,7.43
2022-11-29T13:07:34.279Z,6.90
2022-11-29T13:12:47.739Z,7.72
2022-11-29T13:17:57.297Z,7.47
2022-11-29T13:20:38.521Z,6.93
2022-11-29T13:23:45.741Z,7.07
2022-11-29T13:26:15.848Z,7.32
2022-11-29T13:28:44.193Z,7.32
2022-11-29T13:31:19.926Z,7.28
2022-11-29T13:33:57.641Z,7.25
2022-11-29T13:36:56.150Z,7.40
2022-11-29T13:39:49.389Z,6.50
2022-11-29T13:42:35.540Z,6.25
2022-11-29T13:45:18.792Z,6.15
2022-11-29T13:48:02.178Z,6.18
2022-11-29T13:50:36.136Z,6.05
2022-11-29T13:53:06.278Z,5.45
2022-11-29T13:55:32.655Z,5.35
2022-11-29T13:58:18.300Z,5.28
2022-11-29T14:00:44.976Z,5.60
2022-11-29T14:03:30.148Z,5.53
2022-11-29T14:06:02.399Z,4.82
2022-11-29T14:09:01.936Z,5.40
2022-11-29T14:11:31.493Z,4.95
2022-11-29T14:14:36.231Z,4.82
2022-11-29T14:17:05.135Z,4.45
2022-11-29T14:19:36.877Z,4.10
2022-11-29T14:22:03.158Z,4.50
2022-11-29T14:24:32.248Z,4.35
2022-11-29T14:27:07.853Z,4.05
2022-11-29T14:29:49.443Z,4.43
2022-11-29T14:32:41.506Z,4.28
2022-11-29T14:35:10.777Z,4.32
2022-11-29T14:38:05.472Z,4.82
2022-11-29T14:40:41.013Z,4.80
2022-11-29T14:43:26.296Z,5.68
2022-11-29T14:46:11.516Z,4.95
2022-11-29T14:48:38.253Z,5.57
2022-11-29T14:51:13.505Z,5.57
2022-11-29T14:53:41.670Z,6.30
2022-11-29T14:56:36.290Z,5.82
2022-11-29T14:59:40.129Z,5.22
2022-11-29T15:02:21.519Z,5.40
2022-11-29T15:04:51.725Z,5.55
2022-11-29T15:07:28.382Z,5.78
2022-11-29T15:09:59.265Z,5.72
2022-11-29T15:12:28.854Z,5.20
2022-11-29T15:15:05.915Z,5.78
2022-11-29T15:17:50.663Z,5.68
2022-11-29T15:20:40.629Z,6.07
2022-11-29T15:23:14.187Z,6.25
2022-11-29T15:25:51.492Z,6.88
2022-11-29T15:28:22.460Z,6.82
2022-11-29T15:31:00.234Z,6.55
2022-11-29T15:33:28.079Z,8.45
2022-11-29T15:35:56.940Z,7.95
2022-11-29T15:38:24.328Z,7.40
2022-11-29T15:40:52.660Z,7.35
2022-11-29T15:43:23.703Z,7.40
2022-11-29T15:45:52.512Z,7.40
2022-11-29T15:48:23.400Z,8.27
2022-11-29T15:51:09.451Z,7.10
2022-11-29T15:53:50.342Z,7.82
2022-11-29T15:56:49.160Z,7.80
2022-11-29T15:59:23.291Z,7.22
2022-11-29T16:01:53.821Z,7.95
2022-11-29T16:04:22.292Z,8.30
2022-11-29T16:06:49.729Z,8.88
2022-11-29T16:09:25.962Z,7.90
2022-11-29T16:11:52.558Z,8.50
2022-11-29T16:14:25.011Z,7.90
2022-11-29T16:16:54.404Z,8.48
2022-11-29T16:19:35.804Z,8.68
2022-11-29T16:22:07.673Z,8.90
2022-11-29T16:24:36.058Z,9.50
2022-11-29T16:27:02.789Z,8.90
2022-11-29T16:29:38.454Z,9.13
2022-11-29T16:32:25.813Z,9.18
2022-11-29T16:34:53.207Z,9.07
2022-11-29T16:37:25.263Z,9.30
2022-11-29T16:39:56.622Z,8.95
2022-11-29T16:42:26.171Z,9.18
2022-11-29T16:45:01.891Z,8.73
2022-11-29T16:47:49.728Z,8.70
2022-11-29T16:50:18.195Z,8.63
2022-11-29T16:52:45.128Z,9.32
2022-11-29T16:55:11.695Z,7.97
2022-11-29T16:57:38.409Z,8.60
2022-11-29T17:00:12.396Z,8.02
2022-11-29T17:02:38.846Z,8.57
2022-11-29T17:05:05.516Z,7.93
2022-11-29T17:07:35.989Z,7.95
2022-11-29T17:10:05.366Z,7.80
2022-11-29T17:12:31.738Z,8.25
2022-11-29T17:14:58.049Z,8.88
2022-11-29T17:17:24.377Z,8.23
2022-11-29T17:19:50.685Z,8.60
2022-11-29T17:22:17.019Z,9.05
2022-11-29T17:24:47.627Z,9.13
2022-11-29T17:27:14.803Z,8.45
2022-11-29T17:29:41.131Z,9.68
2022-11-29T17:32:07.501Z,9.15
2022-11-29T17:34:33.861Z,9.82
2022-11-29T17:37:00.169Z,9.15
2022-11-29T17:39:26.493Z,9.30
2022-11-29T17:41:52.906Z,9.35
2022-11-29T17:44:19.257Z,9.68
2022-11-29T17:46:45.610Z,9.63
2022-11-29T17:49:11.961Z,9.60
2022-11-29T17:51:55.154Z,9.98
2022-11-29T17:54:22.286Z,9.65
2022-11-29T17:56:48.824Z,9.82
2022-11-29T17:59:15.173Z,10.13
2022-11-29T18:01:41.596Z,11.38
2022-11-29T18:04:07.969Z,10.95
2022-11-29T18:06:37.205Z,10.15
2022-11-29T18:09:04.833Z,10.88
2022-11-29T18:11:42.956Z,10.90
2022-11-29T18:14:15.492Z,10.60
2022-11-29T18:16:42.179Z,10.90
2022-11-29T18:19:12.126Z,11.02
2022-11-29T18:21:38.949Z,10.70
2022-11-29T18:24:06.792Z,11.25
2022-11-29T18:26:34.876Z,11.55
2022-11-29T18:29:01.255Z,11.13
2022-11-29T18:31:35.259Z,11.43
2022-11-29T18:34:03.790Z,11.70
2022-11-29T18:36:35.255Z,11.65
2022-11-29T18:39:07.877Z,12.23
2022-11-29T18:41:35.114Z,12.75
2022-11-29T18:44:04.928Z,12.23
2022-11-29T18:46:31.961Z,12.18
2022-11-29T18:49:00.115Z,13.57
2022-11-29T18:51:27.366Z,13.10
2022-11-29T18:53:53.711Z,12.38
2022-11-29T18:56:22.339Z,13.80
2022-11-29T18:58:58.576Z,13.02
2022-11-29T19:01:27.492Z,13.32
2022-11-29T19:03:55.327Z,12.45
2022-11-29T19:06:24.140Z,12.93
2022-11-29T19:08:51.893Z,11.75
2022-11-29T19:11:20.726Z,12.10
2022-11-29T19:13:53.666Z,10.55
2022-11-29T19:16:20.034Z,8.80
2022-11-29T19:18:51.256Z,4.75
2022-11-29T19:21:19.543Z,8.02
2022-11-29T19:23:54.653Z,6.40
2022-11-29T19:26:22.005Z,5.88
2022-11-29T19:28:49.255Z,7.57
2022-11-29T19:31:18.746Z,6.65
2022-11-29T19:33:46.425Z,7.57
2022-11-29T19:36:18.290Z,5.68
2022-11-29T19:38:50.164Z,8.05
2022-11-29T19:41:28.100Z,7.68
2022-11-29T19:43:57.565Z,7.93
2022-11-29T19:46:26.821Z,6.80
2022-11-29T19:48:54.945Z,7.72
2022-11-29T19:51:22.325Z,8.52
2022-11-29T19:53:52.631Z,8.90
2022-11-29T19:56:19.230Z,8.88
2022-11-29T19:58:46.178Z,9.13
2022-11-29T20:01:15.294Z,8.88
2022-11-29T20:03:42.362Z,9.02
2022-11-29T20:06:09.513Z,9.68
2022-11-29T20:08:36.762Z,9.23
2022-11-29T20:11:22.064Z,9.25
2022-11-29T20:13:57.224Z,9.35
2022-11-29T20:16:24.779Z,8.95
2022-11-29T20:18:51.871Z,8.95
2022-11-29T20:21:30.711Z,9.52
2022-11-29T20:24:07.039Z,8.95
2022-11-29T20:26:36.375Z,9.35
2022-11-29T20:29:04.343Z,9.35
2022-11-29T20:31:33.288Z,9.00
2022-11-29T20:33:59.899Z,8.45
2022-11-29T20:36:50.777Z,8.80
2022-11-29T20:39:41.597Z,9.57
2022-11-29T20:42:26.589Z,9.95
2022-11-29T20:44:55.465Z,8.98
2022-11-29T20:47:48.715Z,8.93
2022-11-29T20:50:23.961Z,9.48
2022-11-29T20:52:58.367Z,7.15
2022-11-29T20:55:25.047Z,9.30
2022-11-29T20:57:51.381Z,7.78
2022-11-29T21:00:17.985Z,10.20
2022-11-29T21:02:44.350Z,9.68
2022-11-29T21:05:10.763Z,9.90
2022-11-29T21:07:37.268Z,10.80
2022-11-29T21:10:04.575Z,10.98
2022-11-29T21:12:31.317Z,10.30
2022-11-29T21:14:58.159Z,10.50
2022-11-29T21:17:30.214Z,10.82
2022-11-29T21:20:00.081Z,10.25
2022-11-29T21:22:50.370Z,9.40
2022-11-29T21:27:54.460Z,9.80
2022-11-29T21:30:23.441Z,10.20
2022-11-29T21:32:50.403Z,11.35
2022-11-29T21:35:17.264Z,10.98
2022-11-29T21:37:44.080Z,11.30
2022-11-29T21:40:12.981Z,12.02
2022-11-29T21:42:39.324Z,11.73
2022-11-29T21:45:13.292Z,10.02
2022-11-29T21:47:41.719Z,10.68
2022-11-29T21:50:08.641Z,11.50
2022-11-29T21:52:35.063Z,11.52
2022-11-29T21:55:01.904Z,11.57
2022-11-29T21:57:28.263Z,10.45
2022-11-29T21:59:54.661Z,11.57
2022-11-29T22:02:21.112Z,8.90
2022-11-29T22:04:47.770Z,10.23
2022-11-29T22:07:14.305Z,9.88
2022-11-29T22:09:40.761Z,8.43
2022-11-29T22:12:26.216Z,8.80
2022-11-29T22:14:53.530Z,9.27
2022-11-29T22:17:19.897Z,9.55
2022-11-29T22:19:46.243Z,8.52
2022-11-29T22:22:12.640Z,11.00
2022-11-29T22:24:39.125Z,10.68
2022-11-29T22:27:05.465Z,11.45
2022-11-29T22:29:31.821Z,11.10
2022-11-29T22:31:58.120Z,11.95
2022-11-29T22:34:26.796Z,11.05
2022-11-29T22:36:53.139Z,11.90
2022-11-29T22:39:19.493Z,12.02
2022-11-29T22:41:50.688Z,12.07
2022-11-29T22:44:20.222Z,12.13
2022-11-29T22:46:46.539Z,10.82
2022-11-29T22:49:12.939Z,11.25
2022-11-29T22:51:39.283Z,12.05
2022-11-29T22:54:08.680Z,11.27
2022-11-29T22:56:38.011Z,12.00
2022-11-29T22:59:05.170Z,12.27
2022-11-29T23:01:33.276Z,12.05
2022-11-29T23:04:02.310Z,12.02
2022-11-29T23:06:30.929Z,12.57
2022-11-29T23:08:59.528Z,12.68
2022-11-29T23:11:30.243Z,12.45
2022-11-29T23:13:57.029Z,12.85
2022-11-29T23:16:26.415Z,12.35
2022-11-29T23:18:54.391Z,11.93
2022-11-29T23:21:26.202Z,12.63
2022-11-29T23:23:56.542Z,12.88
2022-11-29T23:26:32.502Z,11.38
2022-11-29T23:28:58.862Z,10.93
2022-11-29T23:31:25.433Z,12.18
2022-11-29T23:33:51.847Z,10.98
2022-11-29T23:36:18.337Z,11.48
2022-11-29T23:38:44.813Z,11.57
2022-11-29T23:41:11.381Z,11.45
2022-11-29T23:43:39.528Z,11.07
2022-11-29T23:46:24.314Z,11.68
2022-11-29T23:48:50.879Z,12.15
2022-11-29T23:51:18.508Z,12.25
2022-11-29T23:53:45.772Z,12.80
2022-11-29T23:56:17.211Z,13.05
2022-11-29T23:58:44.533Z,10.70
